Time;durP1;ratioP1;P1;durP2;ratioP2;P2;SDS_P1;SDS_P2;PMS_P1;PMS_P2;Temp;Humidity;BMP_temperature;BMP_pressure;BME280_temperature;BME280_humidity;BME280_pressure;Samples;Min_cycle;Max_cycle;Signal;HPM_P1;HPM_P2
2022/04/05 00:00:57;;;;;;;5.47;1.60;;;7.20;99.90;;;;;;5024188;28;20049;-77
2022/04/05 00:03:22;;;;;;;11.98;1.77;;;7.10;99.90;;;;;;5031181;28;20072;-76
2022/04/05 00:05:48;;;;;;;7.60;2.05;;;7.20;99.90;;;;;;5028486;28;20849;-76
2022/04/05 00:08:16;;;;;;;5.88;1.40;;;7.10;99.90;;;;;;5033190;28;20049;-76
2022/04/05 00:10:42;;;;;;;11.30;2.00;;;7.10;99.90;;;;;;5023407;28;20053;-76
2022/04/05 00:13:08;;;;;;;7.68;1.55;;;7.20;99.90;;;;;;5026812;28;20048;-76
2022/04/05 00:15:35;;;;;;;5.70;1.35;;;7.10;99.90;;;;;;5034308;28;20051;-76
2022/04/05 00:18:01;;;;;;;7.80;1.55;;;7.70;99.90;;;;;;5035351;28;20497;-77
2022/04/05 00:20:29;;;;;;;8.00;1.30;;;7.50;99.90;;;;;;5027914;28;20123;-77
2022/04/05 00:22:56;;;;;;;5.60;1.30;;;7.20;99.90;;;;;;5025670;28;20495;-76
2022/04/05 00:25:21;;;;;;;11.93;1.65;;;7.20;99.90;;;;;;5033948;28;20044;-77
2022/04/05 00:27:47;;;;;;;10.57;1.50;;;7.10;99.90;;;;;;5022339;28;20049;-76
2022/04/05 00:30:14;;;;;;;8.20;1.50;;;7.20;99.90;;;;;;5029026;28;20359;-76
2022/04/05 00:32:41;;;;;;;6.65;1.25;;;7.10;99.90;;;;;;5025966;28;20049;-76
2022/04/05 00:35:08;;;;;;;8.52;1.45;;;7.10;99.90;;;;;;5025650;28;20057;-76
2022/04/05 00:37:34;;;;;;;6.38;1.27;;;7.10;99.90;;;;;;5028784;28;20190;-77
2022/04/05 00:40:00;;;;;;;6.70;1.35;;;7.30;99.90;;;;;;5024157;28;20587;-77
2022/04/05 00:42:25;;;;;;;6.93;1.17;;;7.10;99.90;;;;;;5018155;28;20053;-77
2022/04/05 00:44:51;;;;;;;8.02;1.10;;;7.10;99.90;;;;;;5027471;28;20049;-77
2022/04/05 00:47:22;;;;;;;5.90;1.00;;;7.10;99.90;;;;;;5022930;28;20138;-77
2022/04/05 00:49:49;;;;;;;5.38;0.90;;;7.10;99.90;;;;;;5035078;28;20576;-77
2022/04/05 00:52:16;;;;;;;9.07;1.15;;;7.10;99.90;;;;;;5029035;28;20147;-76
2022/04/05 00:54:45;;;;;;;7.68;1.20;;;7.10;99.90;;;;;;5024574;28;20144;-76
2022/04/05 00:57:13;;;;;;;7.47;0.90;;;7.10;99.90;;;;;;5027918;28;20071;-76
2022/04/05 00:59:43;;;;;;;7.63;0.90;;;7.10;99.90;;;;;;5028550;28;20130;-76
2022/04/05 01:02:18;;;;;;;6.35;1.05;;;7.00;99.90;;;;;;5024979;28;20053;-76
2022/04/05 01:04:45;;;;;;;11.13;1.30;;;7.00;99.90;;;;;;5022370;28;20091;-76
2022/04/05 01:07:22;;;;;;;8.77;1.40;;;7.00;99.90;;;;;;5024453;28;20080;-77
2022/04/05 01:09:53;;;;;;;9.50;1.63;;;7.10;99.90;;;;;;5025189;28;20054;-77
2022/04/05 01:12:20;;;;;;;6.28;1.00;;;7.10;99.90;;;;;;5033878;28;20049;-77
2022/04/05 01:14:45;;;;;;;6.20;0.90;;;7.00;99.90;;;;;;5037273;28;20044;-76
2022/04/05 01:17:12;;;;;;;8.13;1.10;;;7.00;99.90;;;;;;5030716;28;20041;-76
2022/04/05 01:19:38;;;;;;;5.53;0.95;;;7.00;99.90;;;;;;5031858;28;20572;-77
2022/04/05 01:22:04;;;;;;;10.73;1.83;;;7.00;99.90;;;;;;5021130;28;20045;-76
2022/04/05 01:24:29;;;;;;;11.30;1.52;;;7.00;99.90;;;;;;5023532;28;20713;-76
2022/04/05 01:26:57;;;;;;;5.63;1.25;;;7.00;99.90;;;;;;5024205;28;20493;-76
2022/04/05 01:29:25;;;;;;;10.30;1.35;;;7.00;99.90;;;;;;5020829;28;20057;-76
2022/04/05 01:32:04;;;;;;;8.90;1.25;;;7.00;99.90;;;;;;5026603;28;20037;-76
2022/04/05 01:34:31;;;;;;;6.85;1.38;;;7.00;99.90;;;;;;5028738;28;20049;-76
2022/04/05 01:36:59;;;;;;;8.02;1.48;;;6.90;99.90;;;;;;5032998;28;20153;-76
2022/04/05 01:39:30;;;;;;;10.38;1.27;;;7.00;99.90;;;;;;5025737;28;20131;-76
2022/04/05 01:41:59;;;;;;;9.35;1.20;;;7.00;99.90;;;;;;5028694;28;20503;-76
2022/04/05 01:44:26;;;;;;;8.52;1.30;;;7.00;99.90;;;;;;5033674;28;20041;-76
2022/04/05 01:46:52;;;;;;;6.78;0.98;;;7.00;99.90;;;;;;5022480;28;20057;-77
2022/04/05 01:49:18;;;;;;;8.98;1.70;;;7.00;99.90;;;;;;5029242;28;20093;-76
2022/04/05 01:51:44;;;;;;;12.48;1.33;;;6.90;99.90;;;;;;5029669;28;20476;-76
2022/04/05 01:54:12;;;;;;;6.13;1.42;;;7.00;99.90;;;;;;5026013;28;20065;-76
2022/04/05 01:56:45;;;;;;;10.93;1.45;;;6.10;99.90;;;;;;5027426;28;20052;-76
2022/04/05 01:59:12;;;;;;;8.43;1.23;;;6.90;99.90;;;;;;5027955;28;20103;-76
2022/04/05 02:01:38;;;;;;;7.65;1.05;;;6.90;99.90;;;;;;5020702;28;20076;-77
2022/04/05 02:04:04;;;;;;;5.88;1.00;;;6.90;99.90;;;;;;5023320;28;20052;-76
2022/04/05 02:06:30;;;;;;;8.77;1.10;;;6.90;99.90;;;;;;5021901;28;20127;-76
2022/04/05 02:08:55;;;;;;;6.97;1.17;;;6.90;99.90;;;;;;5027848;28;20064;-76
2022/04/05 02:11:22;;;;;;;6.10;0.98;;;6.90;99.90;;;;;;5028242;28;20613;-76
2022/04/05 02:13:48;;;;;;;6.47;1.00;;;6.90;99.90;;;;;;5020573;28;20053;-76
2022/04/05 02:16:14;;;;;;;5.13;1.05;;;6.90;99.90;;;;;;5021705;28;20049;-76
2022/04/05 02:18:41;;;;;;;10.30;1.40;;;6.90;99.90;;;;;;5032433;28;20053;-76
2022/04/05 02:21:07;;;;;;;9.90;1.33;;;6.80;99.90;;;;;;5022002;28;20052;-76
2022/04/05 02:23:32;;;;;;;6.75;1.35;;;6.80;99.90;;;;;;5026034;28;20523;-76
2022/04/05 02:25:58;;;;;;;11.60;1.80;;;7.00;99.90;;;;;;5035769;28;20041;-76
2022/04/05 02:28:25;;;;;;;7.53;1.20;;;6.80;99.90;;;;;;5021808;28;20523;-76
2022/04/05 02:30:51;;;;;;;6.68;1.10;;;6.80;99.90;;;;;;5020951;28;20827;-76
2022/04/05 02:33:17;;;;;;;7.72;1.55;;;6.80;99.90;;;;;;5027048;28;20084;-76
2022/04/05 02:35:43;;;;;;;6.78;1.23;;;6.80;99.90;;;;;;5021737;28;20596;-76
2022/04/05 02:38:09;;;;;;;10.18;1.40;;;6.80;99.90;;;;;;5027731;28;20045;-76
2022/04/05 02:40:35;;;;;;;8.00;1.33;;;6.80;99.90;;;;;;5033493;28;20056;-76
2022/04/05 02:43:02;;;;;;;8.32;1.10;;;6.80;99.90;;;;;;5026682;28;20762;-76
2022/04/05 02:45:27;;;;;;;9.32;1.45;;;6.80;99.90;;;;;;5025538;28;20583;-76
2022/04/05 02:47:53;;;;;;;6.22;1.27;;;6.80;99.90;;;;;;5018500;28;20053;-76
2022/04/05 02:50:18;;;;;;;12.57;1.40;;;6.80;99.90;;;;;;5038091;28;20044;-76
2022/04/05 02:52:47;;;;;;;7.93;1.50;;;7.00;99.90;;;;;;5019486;28;20071;-76
2022/04/05 02:55:13;;;;;;;8.63;1.45;;;7.30;99.90;;;;;;5020883;28;20056;-76
2022/04/05 02:57:41;;;;;;;14.43;1.95;;;6.80;99.90;;;;;;5021266;28;20663;-76
2022/04/05 03:00:08;;;;;;;12.15;1.67;;;6.80;99.90;;;;;;5029868;28;20048;-76
2022/04/05 03:02:34;;;;;;;12.15;1.85;;;6.80;99.90;;;;;;5023025;28;20052;-76
2022/04/05 03:05:07;;;;;;;9.13;1.60;;;6.80;99.90;;;;;;5019950;28;20700;-76
2022/04/05 03:07:34;;;;;;;11.32;1.80;;;6.80;99.90;;;;;;5028550;28;20088;-76
2022/04/05 03:10:06;;;;;;;14.60;1.75;;;6.80;99.90;;;;;;5024022;28;20805;-76
2022/04/05 03:12:32;;;;;;;11.88;1.80;;;6.80;99.90;;;;;;5022775;28;20586;-76
2022/04/05 03:14:58;;;;;;;11.73;2.20;;;7.00;99.90;;;;;;5032752;28;20136;-76
2022/04/05 03:17:24;;;;;;;9.73;1.67;;;6.80;99.90;;;;;;5033955;28;20055;-76
2022/04/05 03:19:49;;;;;;;12.88;1.98;;;6.80;99.90;;;;;;5033399;28;20037;-76
2022/04/05 03:22:16;;;;;;;11.43;1.90;;;6.80;99.90;;;;;;5032044;28;20073;-76
2022/04/05 03:24:43;;;;;;;11.45;1.67;;;6.80;99.90;;;;;;5021166;28;20048;-76
2022/04/05 03:27:08;;;;;;;11.80;2.00;;;6.80;99.90;;;;;;5026451;28;20680;-76
2022/04/05 03:29:34;;;;;;;13.23;2.40;;;6.80;99.90;;;;;;5025967;28;20045;-76
2022/04/05 03:32:01;;;;;;;16.38;2.10;;;6.80;99.90;;;;;;5023454;28;20041;-76
2022/04/05 03:34:27;;;;;;;12.80;1.38;;;6.80;99.90;;;;;;5032473;28;20407;-76
2022/04/05 03:36:53;;;;;;;12.90;1.63;;;6.80;99.90;;;;;;5024789;28;20049;-76
2022/04/05 03:39:19;;;;;;;16.33;2.35;;;6.80;99.90;;;;;;5031409;28;20133;-76
2022/04/05 03:41:45;;;;;;;13.48;1.75;;;6.80;99.90;;;;;;5014383;28;20396;-76
2022/04/05 03:44:10;;;;;;;11.95;1.67;;;6.80;99.90;;;;;;5023000;28;20114;-76
2022/04/05 03:46:36;;;;;;;13.60;1.92;;;7.40;99.90;;;;;;5029289;28;20140;-76
2022/04/05 03:49:03;;;;;;;12.95;2.03;;;6.80;99.90;;;;;;5022718;28;20037;-76
2022/04/05 03:51:29;;;;;;;10.85;1.42;;;6.80;99.90;;;;;;5041532;28;20046;-76
2022/04/05 03:53:55;;;;;;;16.38;2.00;;;7.50;99.90;;;;;;5039635;28;20057;-77
2022/04/05 03:56:22;;;;;;;11.77;2.00;;;6.80;99.90;;;;;;5034247;28;20049;-76
2022/04/05 03:58:49;;;;;;;14.75;2.10;;;6.80;99.90;;;;;;5033490;28;20596;-76
2022/04/05 04:01:15;;;;;;;13.15;2.47;;;6.80;99.90;;;;;;5022414;28;20487;-77
2022/04/05 04:03:40;;;;;;;15.52;3.13;;;6.80;99.90;;;;;;5025837;28;20041;-76
2022/04/05 04:06:06;;;;;;;14.35;2.33;;;6.80;99.90;;;;;;5031504;28;20091;-76
2022/04/05 04:08:32;;;;;;;11.27;2.20;;;6.80;99.90;;;;;;5037126;28;20048;-76
2022/04/05 04:10:57;;;;;;;15.07;2.20;;;6.80;99.90;;;;;;5032715;28;20092;-76
2022/04/05 04:13:23;;;;;;;21.05;2.90;;;6.80;99.90;;;;;;5027318;28;20076;-76
2022/04/05 04:15:49;;;;;;;9.60;2.00;;;7.50;99.90;;;;;;5036194;28;20048;-77
2022/04/05 04:18:15;;;;;;;12.70;1.80;;;6.80;99.90;;;;;;5035893;28;20037;-77
2022/04/05 04:20:43;;;;;;;23.55;3.00;;;6.80;99.90;;;;;;5038419;28;20583;-76
2022/04/05 04:23:10;;;;;;;14.18;1.83;;;6.80;99.90;;;;;;5024702;28;20045;-76
2022/04/05 04:25:37;;;;;;;13.48;2.15;;;6.80;99.90;;;;;;5036364;28;20622;-76
2022/04/05 04:28:07;;;;;;;13.45;2.50;;;6.80;99.90;;;;;;5038182;28;20045;-77
2022/04/05 04:30:34;;;;;;;12.23;1.45;;;6.70;99.90;;;;;;5024088;28;20153;-77
2022/04/05 04:33:00;;;;;;;12.98;1.88;;;6.70;99.90;;;;;;5023964;28;20041;-77
2022/04/05 04:35:26;;;;;;;17.10;1.90;;;6.70;99.90;;;;;;5026252;28;20610;-77
2022/04/05 04:37:52;;;;;;;17.27;2.50;;;6.70;99.90;;;;;;5030275;28;20053;-76
2022/04/05 04:40:18;;;;;;;17.50;2.55;;;6.70;99.90;;;;;;5025018;28;20053;-77
2022/04/05 04:42:44;;;;;;;11.70;1.38;;;6.70;99.90;;;;;;5029139;28;20069;-77
2022/04/05 04:45:10;;;;;;;22.00;2.60;;;6.70;99.90;;;;;;5034819;28;20687;-77
2022/04/05 04:47:36;;;;;;;14.35;1.98;;;6.70;99.90;;;;;;5028829;28;20770;-76
2022/04/05 04:50:01;;;;;;;12.98;2.17;;;6.70;99.90;;;;;;5028110;28;20143;-76
2022/04/05 04:52:27;;;;;;;19.45;2.92;;;6.60;99.90;;;;;;5021113;28;20060;-76
2022/04/05 04:54:53;;;;;;;20.52;2.38;;;6.60;99.90;;;;;;5025678;28;20153;-77
2022/04/05 04:57:19;;;;;;;15.05;2.17;;;6.60;99.90;;;;;;5028005;28;20931;-77
2022/04/05 04:59:44;;;;;;;11.90;2.13;;;7.10;99.90;;;;;;5029844;28;20048;-77
2022/04/05 05:02:11;;;;;;;15.70;2.38;;;6.60;99.90;;;;;;5035082;28;20052;-76
2022/04/05 05:04:37;;;;;;;17.98;2.53;;;6.60;99.90;;;;;;5029758;28;20053;-76
2022/04/05 05:07:03;;;;;;;9.90;1.80;;;6.60;99.90;;;;;;5036490;28;20810;-76
2022/04/05 05:09:29;;;;;;;13.13;1.92;;;6.70;99.90;;;;;;5021327;28;20053;-76
2022/04/05 05:11:54;;;;;;;15.77;2.65;;;6.60;99.90;;;;;;5044174;28;20064;-76
2022/04/05 05:14:20;;;;;;;17.27;2.53;;;6.70;99.90;;;;;;5030634;28;20457;-76
2022/04/05 05:16:46;;;;;;;15.57;2.40;;;6.60;99.90;;;;;;5021793;28;20046;-76
2022/04/05 05:19:12;;;;;;;8.57;1.67;;;6.60;99.90;;;;;;5020906;28;20538;-76
2022/04/05 05:21:37;;;;;;;12.80;2.03;;;6.60;99.90;;;;;;5028415;28;20065;-76
2022/04/05 05:24:04;;;;;;;16.90;2.50;;;6.60;99.90;;;;;;5028918;28;20146;-78
2022/04/05 05:26:29;;;;;;;12.00;2.20;;;6.60;99.90;;;;;;5022170;28;20052;-78
2022/04/05 05:28:55;;;;;;;12.00;2.08;;;6.60;99.90;;;;;;5033924;28;20049;-76
2022/04/05 05:31:20;;;;;;;11.57;1.90;;;6.60;99.90;;;;;;5030948;28;20057;-77
2022/04/05 05:33:46;;;;;;;9.40;1.60;;;6.60;99.90;;;;;;5024376;28;20037;-76
2022/04/05 05:36:12;;;;;;;9.35;1.98;;;6.60;99.90;;;;;;5035043;28;20578;-77
2022/04/05 05:38:37;;;;;;;14.57;2.30;;;6.70;99.90;;;;;;5030997;28;20497;-77
2022/04/05 05:41:04;;;;;;;15.38;2.28;;;6.60;99.90;;;;;;5017123;28;20045;-75
2022/04/05 05:43:30;;;;;;;13.38;1.88;;;6.70;99.90;;;;;;5026936;28;20051;-77
2022/04/05 05:45:55;;;;;;;12.25;1.63;;;6.70;99.90;;;;;;5038178;28;20048;-77
2022/04/05 05:48:21;;;;;;;12.55;2.15;;;6.70;99.90;;;;;;5032562;28;20046;-77
2022/04/05 05:50:46;;;;;;;11.60;2.08;;;6.70;99.90;;;;;;5029524;28;20095;-77
2022/04/05 05:53:12;;;;;;;12.73;2.17;;;6.80;99.90;;;;;;5028294;28;20041;-77
2022/04/05 05:55:38;;;;;;;10.40;2.10;;;6.80;99.90;;;;;;5035151;28;20060;-77
2022/04/05 05:58:04;;;;;;;10.15;1.98;;;6.80;99.90;;;;;;5030591;28;20118;-77
2022/04/05 06:00:31;;;;;;;16.05;2.25;;;6.80;99.90;;;;;;5035750;28;20503;-77
2022/04/05 06:03:01;;;;;;;13.80;2.47;;;6.80;99.90;;;;;;5038241;28;20057;-77
2022/04/05 06:05:28;;;;;;;10.48;2.35;;;6.80;99.90;;;;;;5029615;28;20064;-77
2022/04/05 06:07:54;;;;;;;8.65;2.70;;;6.90;99.90;;;;;;5022087;28;20049;-77
2022/04/05 06:10:20;;;;;;;14.32;2.25;;;6.80;99.90;;;;;;5025968;28;20053;-77
2022/04/05 06:12:48;;;;;;;13.93;3.13;;;6.90;99.90;;;;;;5036998;28;20080;-77
2022/04/05 06:15:15;;;;;;;9.60;2.65;;;6.90;99.90;;;;;;5038417;28;20103;-77
2022/04/05 06:17:45;;;;;;;10.07;2.53;;;6.90;99.90;;;;;;5023408;28;20057;-77
2022/04/05 06:20:13;;;;;;;16.55;3.20;;;6.90;99.90;;;;;;5035060;28;20053;-77
2022/04/05 06:22:42;;;;;;;12.50;3.10;;;6.90;99.90;;;;;;5037774;28;20091;-77
2022/04/05 06:25:09;;;;;;;12.52;3.40;;;6.90;99.90;;;;;;5032670;28;20083;-77
2022/04/05 06:27:36;;;;;;;14.80;3.58;;;7.00;99.90;;;;;;5031919;28;20079;-77
2022/04/05 06:30:02;;;;;;;15.27;2.70;;;7.00;99.90;;;;;;5030787;28;20081;-77
2022/04/05 06:32:27;;;;;;;13.82;2.90;;;7.00;99.90;;;;;;5035798;28;20136;-77
2022/04/05 06:34:53;;;;;;;10.68;2.30;;;7.00;99.90;;;;;;5028619;28;20060;-77
2022/04/05 06:37:19;;;;;;;7.70;2.00;;;7.00;99.90;;;;;;5026148;28;20148;-77
2022/04/05 06:39:44;;;;;;;10.25;2.50;;;7.00;99.90;;;;;;5035407;28;20066;-77
2022/04/05 06:42:10;;;;;;;13.77;2.10;;;7.10;99.90;;;;;;5032266;28;20413;-77
2022/04/05 06:44:35;;;;;;;12.05;2.63;;;7.20;99.90;;;;;;5033069;28;20587;-77
2022/04/05 06:47:01;;;;;;;14.32;2.13;;;7.20;99.90;;;;;;5026985;28;20064;-77
2022/04/05 06:49:26;;;;;;;9.77;2.00;;;7.20;99.90;;;;;;5027046;28;20037;-77
2022/04/05 06:51:52;;;;;;;11.48;2.15;;;7.20;99.90;;;;;;5032945;28;20041;-77
2022/04/05 06:54:17;;;;;;;7.35;1.98;;;7.30;99.90;;;;;;5035011;28;20057;-77
2022/04/05 06:56:43;;;;;;;11.63;2.13;;;7.30;99.90;;;;;;5026611;28;20052;-77
2022/04/05 06:59:08;;;;;;;16.42;2.47;;;7.40;99.90;;;;;;5032969;28;20048;-77
2022/04/05 07:01:35;;;;;;;8.65;2.55;;;7.40;99.90;;;;;;5024967;28;20488;-77
2022/04/05 07:04:01;;;;;;;11.65;3.05;;;7.50;99.90;;;;;;5023417;28;20052;-77
2022/04/05 07:06:26;;;;;;;13.68;3.28;;;7.60;99.90;;;;;;5035542;28;20064;-75
2022/04/05 07:08:52;;;;;;;12.73;3.38;;;7.70;99.90;;;;;;5037440;28;20047;-78
2022/04/05 07:11:17;;;;;;;13.15;3.13;;;7.80;99.90;;;;;;5026015;28;20053;-79
2022/04/05 07:13:43;;;;;;;11.85;2.90;;;7.80;99.90;;;;;;5032834;28;20055;-78
2022/04/05 07:16:08;;;;;;;9.80;2.88;;;7.90;99.90;;;;;;5018455;28;20049;-79
2022/04/05 07:18:34;;;;;;;10.80;2.50;;;7.80;99.90;;;;;;5034735;28;20049;-78
2022/04/05 07:21:02;;;;;;;10.85;2.85;;;7.90;99.90;;;;;;5041855;28;20049;-78
2022/04/05 07:23:27;;;;;;;7.65;2.30;;;7.90;99.90;;;;;;5041029;28;20048;-79
2022/04/05 07:25:53;;;;;;;9.50;2.15;;;7.90;99.90;;;;;;5042459;28;20484;-78
2022/04/05 07:28:18;;;;;;;8.38;1.98;;;8.00;99.90;;;;;;5026525;28;20056;-79
2022/04/05 07:30:44;;;;;;;10.77;2.40;;;8.00;99.90;;;;;;5048213;28;20726;-78
2022/04/05 07:33:10;;;;;;;11.77;2.55;;;8.00;99.90;;;;;;5036738;28;20922;-79
2022/04/05 07:35:35;;;;;;;12.57;2.42;;;8.00;99.90;;;;;;5036655;28;20046;-79
2022/04/05 07:38:01;;;;;;;7.43;1.98;;;8.00;99.90;;;;;;5032095;28;20485;-78
2022/04/05 07:40:47;;;;;;;12.75;1.80;;;8.00;99.90;;;;;;5034118;28;20542;-79
2022/04/05 07:43:12;;;;;;;8.95;2.08;;;8.00;99.90;;;;;;5027696;28;20044;-78
2022/04/05 07:45:37;;;;;;;9.40;2.50;;;8.00;99.90;;;;;;5036474;28;20694;-78
2022/04/05 07:48:03;;;;;;;8.77;2.08;;;8.10;99.90;;;;;;5030053;28;20083;-78
2022/04/05 07:50:29;;;;;;;9.90;2.17;;;8.00;99.90;;;;;;5046108;28;20044;-79
2022/04/05 07:52:55;;;;;;;9.65;2.13;;;8.00;99.90;;;;;;5036570;28;20053;-78
2022/04/05 07:55:20;;;;;;;7.43;1.73;;;8.00;99.90;;;;;;5021836;28;20791;-78
2022/04/05 07:57:49;;;;;;;9.68;2.33;;;8.10;99.90;;;;;;5022674;28;20052;-77
2022/04/05 08:00:15;;;;;;;8.93;2.40;;;8.10;99.90;;;;;;5042313;28;20111;-78
2022/04/05 08:02:42;;;;;;;9.18;2.80;;;8.10;99.90;;;;;;5027000;28;20049;-79
2022/04/05 08:05:08;;;;;;;9.45;2.50;;;8.20;99.90;;;;;;5023758;28;20048;-79
2022/04/05 08:07:34;;;;;;;10.35;2.88;;;8.20;99.90;;;;;;5031335;28;20037;-79
2022/04/05 08:10:00;;;;;;;10.30;2.80;;;8.10;99.90;;;;;;5029378;28;20064;-79
2022/04/05 08:12:25;;;;;;;7.15;3.08;;;8.10;99.90;;;;;;5034255;28;20049;-80
2022/04/05 08:14:51;;;;;;;8.60;2.67;;;8.10;99.90;;;;;;5029972;28;20052;-80
2022/04/05 08:17:16;;;;;;;10.45;2.90;;;8.20;99.90;;;;;;5026686;28;20084;-80
2022/04/05 08:19:42;;;;;;;7.70;2.47;;;8.20;99.90;;;;;;5039348;28;20487;-80
2022/04/05 08:22:10;;;;;;;6.95;2.45;;;8.20;99.90;;;;;;5038157;28;20876;-80
2022/04/05 08:24:36;;;;;;;5.88;2.22;;;8.20;99.90;;;;;;5023636;28;20045;-80
2022/04/05 08:27:01;;;;;;;7.05;1.98;;;8.20;99.90;;;;;;5037364;28;20115;-79
2022/04/05 08:29:27;;;;;;;7.38;1.95;;;8.30;99.90;;;;;;5030178;28;20041;-79
2022/04/05 08:31:53;;;;;;;8.57;2.80;;;8.30;99.90;;;;;;5035847;28;20044;-80
2022/04/05 08:34:18;;;;;;;10.52;2.28;;;8.30;99.90;;;;;;5036423;28;20055;-80
2022/04/05 08:36:44;;;;;;;6.40;2.20;;;8.30;99.90;;;;;;5031518;28;20043;-80
2022/04/05 08:39:10;;;;;;;6.40;2.08;;;8.30;99.90;;;;;;5033138;28;20151;-82
2022/04/05 08:41:37;;;;;;;6.25;2.30;;;8.30;99.90;;;;;;5029597;28;20163;-81
2022/04/05 08:44:03;;;;;;;11.15;2.42;;;8.40;99.90;;;;;;5031668;28;20056;-79
2022/04/05 08:46:34;;;;;;;4.22;2.05;;;8.40;99.90;;;;;;5035569;28;20075;-80
2022/04/05 08:49:00;;;;;;;6.50;1.75;;;8.50;99.90;;;;;;5034403;28;20662;-80
2022/04/05 08:51:26;;;;;;;7.47;2.05;;;8.60;99.90;;;;;;5036288;28;20049;-80
2022/04/05 08:53:52;;;;;;;5.45;1.90;;;8.60;99.90;;;;;;5034046;28;20061;-81
2022/04/05 08:56:17;;;;;;;9.68;2.78;;;8.70;99.90;;;;;;5033729;28;20080;-81
2022/04/05 08:58:43;;;;;;;10.10;1.80;;;8.80;99.90;;;;;;5033402;28;20072;-80
2022/04/05 09:01:10;;;;;;;4.22;1.65;;;9.00;99.90;;;;;;5035456;28;20063;-78
2022/04/05 09:03:35;;;;;;;7.72;1.85;;;9.10;99.90;;;;;;5035373;28;20478;-80
2022/04/05 09:06:27;;;;;;;6.28;1.58;;;9.20;99.90;;;;;;5026837;28;20053;-78
2022/04/05 09:09:13;;;;;;;5.82;1.27;;;9.20;99.90;;;;;;5030050;28;20149;-81
2022/04/05 09:11:47;;;;;;;7.15;1.30;;;9.30;99.90;;;;;;5034461;28;20148;-76
2022/04/05 09:14:13;;;;;;;4.38;1.33;;;9.30;99.90;;;;;;5030922;28;20794;-75
2022/04/05 09:16:39;;;;;;;4.10;1.40;;;9.30;99.90;;;;;;5026613;28;20076;-74
2022/04/05 09:19:15;;;;;;;6.63;1.58;;;9.30;99.90;;;;;;5033715;28;20679;-75
2022/04/05 09:21:55;;;;;;;7.18;1.50;;;9.40;99.90;;;;;;5027867;28;20072;-75
2022/04/05 09:24:31;;;;;;;5.47;1.48;;;9.00;99.90;;;;;;5027805;28;20591;-75
2022/04/05 09:26:57;;;;;;;4.97;1.25;;;9.50;99.90;;;;;;5028168;28;20073;-75
2022/04/05 09:29:47;;;;;;;6.90;1.30;;;9.50;99.90;;;;;;5026640;28;20073;-73
2022/04/05 09:32:33;;;;;;;6.43;1.10;;;9.50;99.90;;;;;;5031296;28;20056;-74
2022/04/05 09:35:02;;;;;;;5.65;1.50;;;9.40;99.90;;;;;;5037077;28;20114;-74
2022/04/05 09:37:30;;;;;;;3.55;1.23;;;8.50;99.90;;;;;;5031870;28;20128;-74
2022/04/05 09:40:16;;;;;;;4.93;1.00;;;9.70;99.90;;;;;;5030138;28;20051;-75
2022/04/05 09:43:10;;;;;;;3.60;1.10;;;9.30;99.90;;;;;;5029855;28;20520;-74
2022/04/05 09:45:58;;;;;;;4.72;0.85;;;9.30;99.90;;;;;;5031629;28;20098;-74
2022/04/05 09:48:35;;;;;;;6.15;1.05;;;9.30;99.90;;;;;;5024024;28;20084;-75
2022/04/05 09:51:06;;;;;;;4.60;1.02;;;9.10;99.90;;;;;;5041982;28;20087;-76
2022/04/05 09:53:46;;;;;;;5.82;1.00;;;9.40;99.90;;;;;;5029902;28;20516;-75
2022/04/05 09:56:18;;;;;;;5.25;1.27;;;9.30;99.90;;;;;;5038986;28;20674;-75
2022/04/05 09:58:48;;;;;;;3.85;1.70;;;9.30;99.90;;;;;;5038643;28;20056;-75
2022/04/05 10:01:15;;;;;;;3.58;1.00;;;9.20;99.90;;;;;;5030812;28;20139;-75
2022/04/05 10:03:43;;;;;;;8.43;1.27;;;9.20;99.90;;;;;;5031673;28;20054;-75
2022/04/05 10:06:10;;;;;;;5.28;1.40;;;9.20;99.90;;;;;;5033280;28;20075;-75
2022/04/05 10:08:37;;;;;;;4.70;1.10;;;9.20;99.90;;;;;;5036521;28;20577;-76
2022/04/05 10:11:04;;;;;;;5.15;1.20;;;9.20;99.90;;;;;;5021413;28;20061;-76
2022/04/05 10:13:30;;;;;;;4.05;1.33;;;9.20;99.90;;;;;;5038364;28;20040;-77
2022/04/05 10:16:00;;;;;;;5.70;1.10;;;9.20;99.90;;;;;;5026716;28;20587;-75
2022/04/05 10:18:32;;;;;;;3.03;1.00;;;9.20;99.90;;;;;;5027142;28;20060;-76
2022/04/05 10:21:00;;;;;;;5.53;1.10;;;9.20;99.90;;;;;;5036018;28;20060;-76
2022/04/05 10:23:28;;;;;;;5.72;1.65;;;9.20;99.90;;;;;;5027539;28;20786;-74
2022/04/05 10:25:55;;;;;;;5.47;1.15;;;9.20;99.90;;;;;;5030647;28;20156;-76
2022/04/05 10:28:30;;;;;;;6.18;1.23;;;9.30;99.90;;;;;;5033871;28;20713;-73
2022/04/05 10:31:12;;;;;;;5.15;1.02;;;9.30;99.90;;;;;;5032711;28;20892;-74
2022/04/05 10:33:53;;;;;;;4.80;1.52;;;9.40;99.90;;;;;;5034053;28;20044;-73
2022/04/05 10:36:23;;;;;;;3.85;1.00;;;9.30;99.90;;;;;;5032023;28;20052;-73
2022/04/05 10:39:12;;;;;;;5.97;1.10;;;9.30;99.90;;;;;;5011815;28;20048;-75
2022/04/05 10:41:41;;;;;;;3.58;1.00;;;9.30;99.90;;;;;;5027145;28;20056;-74
2022/04/05 10:44:27;;;;;;;3.42;1.00;;;9.30;99.90;;;;;;5027693;28;20571;-75
2022/04/05 10:46:58;;;;;;;2.40;0.90;;;9.30;99.90;;;;;;5032377;28;20658;-75
2022/04/05 10:49:47;;;;;;;1.95;0.68;;;9.30;99.90;;;;;;5033423;28;20552;-75
2022/04/05 10:52:15;;;;;;;2.80;0.90;;;9.30;99.90;;;;;;5028439;28;20858;-75
2022/04/05 10:54:49;;;;;;;2.53;0.98;;;9.40;99.90;;;;;;5030421;28;20853;-75
2022/04/05 10:57:34;;;;;;;2.63;0.73;;;9.40;99.90;;;;;;5027859;28;20041;-75
2022/04/05 11:00:12;;;;;;;3.10;1.20;;;9.50;99.90;;;;;;5021753;28;20053;-75
2022/04/05 11:02:55;;;;;;;2.72;0.77;;;9.60;99.90;;;;;;5030201;28;20705;-75
2022/04/05 11:05:37;;;;;;;3.90;1.08;;;9.70;99.90;;;;;;5030259;28;20049;-75
2022/04/05 11:08:07;;;;;;;1.05;0.70;;;9.90;99.90;;;;;;5032450;28;20045;-74
2022/04/05 11:10:39;;;;;;;2.47;0.80;;;10.00;99.90;;;;;;5023247;28;20049;-75
2022/04/05 11:13:12;;;;;;;3.13;1.17;;;10.10;99.90;;;;;;5033326;28;20045;-74
2022/04/05 11:15:47;;;;;;;2.80;0.93;;;10.10;99.90;;;;;;5026932;28;20759;-75
2022/04/05 11:18:16;;;;;;;;;;;10.10;99.90;;;;;;5041677;28;20642;-76
2022/04/05 11:20:43;;;;;;;2.17;0.82;;;10.50;99.90;;;;;;5030266;28;19932;-76
2022/04/05 11:23:11;;;;;;;1.70;0.70;;;10.10;99.90;;;;;;5031561;28;20587;-75
2022/04/05 11:25:37;;;;;;;3.55;0.88;;;10.20;99.90;;;;;;5030142;28;20060;-75
2022/04/05 11:28:15;;;;;;;3.38;1.00;;;10.30;99.90;;;;;;5026901;28;20049;-76
2022/04/05 11:30:52;;;;;;;2.00;0.85;;;10.50;99.90;;;;;;5026424;28;20190;-75
2022/04/05 11:33:26;;;;;;;1.63;0.90;;;10.80;99.90;;;;;;5027698;28;20056;-76
2022/04/05 11:36:09;;;;;;;1.83;0.80;;;11.00;99.90;;;;;;5021904;28;20418;-76
2022/04/05 11:38:41;;;;;;;2.15;1.25;;;11.10;99.90;;;;;;5028960;28;20857;-76
2022/04/05 11:41:10;;;;;;;2.65;1.30;;;11.00;99.90;;;;;;5020524;28;20073;-76
2022/04/05 11:43:42;;;;;;;2.42;1.30;;;10.90;99.90;;;;;;5025638;28;20146;-76
2022/04/05 11:46:11;;;;;;;2.80;1.27;;;10.90;99.90;;;;;;5027587;28;20203;-75
2022/04/05 11:48:45;;;;;;;2.55;1.08;;;10.80;99.90;;;;;;5017914;28;20192;-75
2022/04/05 11:51:14;;;;;;;;;;;10.80;99.90;;;;;;5029697;28;20044;-75
2022/04/05 11:53:41;;;;;;;2.15;0.80;;;10.70;99.90;;;;;;5026755;28;19931;-75
2022/04/05 11:56:12;;;;;;;3.00;1.33;;;10.90;99.90;;;;;;5034082;28;20148;-75
2022/04/05 11:58:40;;;;;;;1.52;0.90;;;10.70;99.90;;;;;;5032782;28;20047;-75
2022/04/05 12:01:08;;;;;;;2.75;1.17;;;10.70;99.90;;;;;;5028776;28;20053;-75
2022/04/05 12:03:42;;;;;;;2.30;1.20;;;10.70;99.90;;;;;;5024552;28;20057;-75
2022/04/05 12:06:08;;;;;;;2.07;1.00;;;10.80;99.90;;;;;;5030108;28;20101;-76
2022/04/05 12:08:34;;;;;;;2.53;1.20;;;10.90;99.90;;;;;;5028926;28;20049;-74
2022/04/05 12:10:59;;;;;;;2.92;1.02;;;10.90;99.90;;;;;;5032982;28;20095;-75
2022/04/05 12:13:34;;;;;;;1.67;0.80;;;10.90;99.90;;;;;;5034673;28;20049;-75
2022/04/05 12:16:02;;;;;;;2.13;1.00;;;10.90;99.90;;;;;;5034041;28;20048;-74
2022/04/05 12:18:28;;;;;;;2.30;1.05;;;10.90;99.90;;;;;;5035307;28;20157;-75
2022/04/05 12:20:56;;;;;;;2.95;1.35;;;10.90;99.90;;;;;;5034695;28;20072;-75
2022/04/05 12:23:24;;;;;;;2.65;1.00;;;10.90;99.90;;;;;;5036482;28;20065;-75
2022/04/05 12:26:13;;;;;;;3.65;1.30;;;10.90;99.90;;;;;;5031025;28;20060;-75
2022/04/05 12:28:43;;;;;;;2.85;1.23;;;10.90;99.90;;;;;;5031459;28;20055;-75
2022/04/05 12:31:17;;;;;;;2.78;1.33;;;10.90;99.90;;;;;;5031715;28;20558;-75
2022/04/05 12:34:14;;;;;;;3.03;1.30;;;10.90;99.90;;;;;;5032012;28;20091;-75
2022/04/05 12:36:46;;;;;;;2.78;1.27;;;11.00;99.90;;;;;;5030340;28;20047;-75
2022/04/05 12:39:20;;;;;;;2.83;1.23;;;11.00;99.90;;;;;;5034264;28;20056;-76
2022/04/05 12:41:48;;;;;;;2.75;1.30;;;11.00;99.90;;;;;;5029471;28;20045;-76
2022/04/05 12:44:20;;;;;;;3.42;1.55;;;11.00;99.90;;;;;;5033137;28;20053;-75
2022/04/05 12:46:59;;;;;;;3.08;1.30;;;11.00;99.90;;;;;;5031128;28;20053;-76
2022/04/05 12:49:40;;;;;;;3.65;1.70;;;11.00;99.90;;;;;;5035282;28;20648;-75
2022/04/05 12:52:35;;;;;;;3.88;1.80;;;11.10;99.90;;;;;;5012312;28;20040;-75
2022/04/05 12:55:06;;;;;;;3.33;1.60;;;11.00;99.90;;;;;;5024196;28;20045;-76
2022/04/05 12:57:36;;;;;;;3.28;1.80;;;11.00;99.90;;;;;;5034576;28;20060;-75
2022/04/05 13:00:13;;;;;;;3.92;2.22;;;11.00;99.90;;;;;;5031419;28;20055;-75